Observations for CHERBOURG MAUPERTUS, France (LFRC)

LFRC 202230Z AUTO 24014KT 9999 BKN024 11/09 Q1017   
LFRC 202200Z AUTO 24013KT 9999 BKN023 11/09 Q1017   
LFRC 202130Z AUTO 24015KT 9999 OVC024 12/09 Q1017   
LFRC 202100Z AUTO 24014KT 9999 FEW014 OVC025 12/09 Q1017
LFRC 202030Z AUTO 25012KT 9999 SCT015 OVC026 12/09 Q1018
LFRC 202000Z AUTO 26016KT 9999 FEW017 BKN026 12/09 Q1018
LFRC 201930Z AUTO 26017KT 9999 OVC024 12/09 Q1018   
LFRC 201900Z AUTO 26013KT 9999 BKN018 OVC023 12/09 Q1018
LFRC 201830Z AUTO 26014KT 9999 BKN020 OVC026 12/09 Q1018 TEMPO BKN012 BECMG 24015G25KT  
LFRC 201800Z AUTO 25018KT 9999 SCT017 BKN025 12/09 Q1017 TEMPO BKN012 BECMG 24015G25KT  
LFRC 201730Z AUTO 25014KT 9999 FEW016 SCT029 BKN230 11/09 Q1017 TEMPO BKN012 BECMG 24015G25KT   
LFRC 201700Z AUTO 25016KT 9999 SCT014 BKN022 BKN082 12/09 Q1017 TEMPO BKN012 BECMG 24015G25KT   
LFRC 201630Z AUTO 25014KT 9999 OVC013 12/09 Q1017 BECMG 24015G25KT  
LFRC 201600Z AUTO 25016KT 9999 BKN015 OVC020 12/09 Q1017 TEMPO BKN012 BECMG 24015G25KT  
LFRC 201530Z AUTO 25017KT 9999 BKN015 OVC022 12/09 Q1017 TEMPO BKN012 BECMG 24015G25KT  
LFRC 201500Z AUTO 25016KT 9999 OVC016 12/09 Q1018 TEMPO BKN012 BECMG 24015G25KT 
LFRC 201430Z AUTO 25016KT 9999 OVC014 12/09 Q1018 BECMG 24015G25KT  
LFRC 201400Z AUTO 25015KT 9999 OVC015 12/09 Q1018 BECMG 23015G25KT  
LFRC 201330Z AUTO 25017KT 9999 BKN013 OVC019 12/09 Q1018 TEMPO BKN015 BECMG 23015G25KT  
LFRC 201300Z AUTO 24016KT 9999 OVC013 13/10 Q1019 TEMPO BKN015 BECMG 23015G25KT 
LFRC 201230Z AUTO 24016KT 9999 BKN015 OVC021 12/09 Q1019 TEMPO BKN010 BECMG 23015G25KT  
LFRC 201200Z AUTO 24016KT 9999 BKN016 OVC025 12/09 Q1019 TEMPO BKN010 BECMG 23015G25KT  
LFRC 201130Z AUTO 24014KT 9999 BKN016 BKN021 BKN026 12/09 Q1020 TEMPO BKN010 BECMG 23015G25KT   
LFRC 201100Z AUTO 24014KT 9999 BKN015 BKN026 OVC032 12/09 Q1020 TEMPO BKN010 BECMG 24015G25KT   
LFRC 201030Z AUTO 24015KT 9999 FEW014 OVC031 12/09 Q1020 TEMPO BKN010 BECMG 24015G25KT  
LFRC 201000Z AUTO 24012KT 9999 BKN014 BKN023 OVC030 12/09 Q1020 BECMG 24015G25KT
LFRC 200930Z AUTO 25015KT 9999 OVC029 12/08 Q1020 TEMPO BKN010 BECMG 24015G25KT 
LFRC 200900Z AUTO 25013KT 9999 BKN031 12/07 Q1020 TEMPO BKN010 BECMG 24015G25KT 
LFRC 200830Z AUTO 25013KT 9999 BKN022 OVC029 11/08 Q1020 TEMPO BKN010 BECMG 24015G25KT  
LFRC 200800Z AUTO 25011KT 9999 BKN027 OVC032 11/08 Q1020 TEMPO BKN010 BECMG 24015G25KT  
LFRC 200730Z AUTO 25011KT 9999 FEW019 OVC029 11/08 Q1020 TEMPO BKN010 BECMG 24015G25KT  
LFRC 200700Z AUTO 24011KT 9999 OVC030 11/07 Q1020 TEMPO BKN010 BECMG 24015G25KT 
LFRC 200630Z AUTO 25014KT 9999 OVC030 11/07 Q1020 TEMPO BKN010 BECMG 24015G25KT 
LFRC 200600Z AUTO 24013KT 9999 FEW017 OVC029 11/09 Q1020 NOSIG  
LFRC 200530Z AUTO 23012KT 9999 OVC029 10/08 Q1020 NOSIG 
LFRC 200500Z AUTO 25012KT 9999 BKN010 OVC020 11/09 Q1021
LFRC 200430Z AUTO 24011KT 9999 BKN008 BKN019 OVC025 11/10 Q1021 
LFRC 200400Z AUTO 22006KT 6000 SCT010 BKN023 OVC036 10/09 Q1021 
LFRC 200330Z AUTO 20006KT 5000 BR BKN031 OVC037 09/08 Q1021 
LFRC 200300Z AUTO 20006KT 6000 BKN035 OVC041 09/08 Q1021
LFRC 200230Z AUTO 20007KT 7000 SCT006 BKN012 BKN022 09/08 Q1022 
LFRC 200200Z AUTO 19008KT 7000 BKN006 BKN011 BKN017 09/08 Q1022 
LFRC 200130Z AUTO 20009KT 9999 FEW007 SCT016 BKN026 09/08 Q1022 
LFRC 200100Z AUTO 20008KT 9999 OVC043 08/07 Q1022   
LFRC 200030Z AUTO 18007KT 9999 OVC042 08/06 Q1023   
LFRC 200000Z AUTO 19008KT 9999 OVC044 08/06 Q1023   
LFRC 192330Z AUTO 19007KT 9999 OVC041 07/06 Q1024   
LFRC 192300Z AUTO 18006KT 9999 OVC036 07/05 Q1024   
LFRC 192230Z AUTO 18006KT 9999 OVC034 07/05 Q1024   
LFRC 192200Z AUTO 18006KT 9999 OVC033 07/05 Q1024